sensor_id;sensor_type;location;lat;lon;timestamp;temperature;humidity
3298;DHT22;1661;53.572;10.174;2023-03-01T00:01:40;1.80;78.60
3298;DHT22;1661;53.572;10.174;2023-03-01T00:04:07;1.70;78.90
3298;DHT22;1661;53.572;10.174;2023-03-01T00:06:34;1.70;78.40
3298;DHT22;1661;53.572;10.174;2023-03-01T00:09:00;1.70;78.80
3298;DHT22;1661;53.572;10.174;2023-03-01T00:11:31;1.70;78.80
3298;DHT22;1661;53.572;10.174;2023-03-01T00:14:00;1.70;78.70
3298;DHT22;1661;53.572;10.174;2023-03-01T00:16:29;1.60;78.50
3298;DHT22;1661;53.572;10.174;2023-03-01T00:18:58;1.60;78.60
3298;DHT22;1661;53.572;10.174;2023-03-01T00:21:25;1.60;78.50
3298;DHT22;1661;53.572;10.174;2023-03-01T00:23:56;1.60;78.70
3298;DHT22;1661;53.572;10.174;2023-03-01T00:26:24;1.60;78.70
3298;DHT22;1661;53.572;10.174;2023-03-01T00:28:52;1.50;78.90
3298;DHT22;1661;53.572;10.174;2023-03-01T00:31:22;1.50;78.90
3298;DHT22;1661;53.572;10.174;2023-03-01T00:33:52;1.50;78.90
3298;DHT22;1661;53.572;10.174;2023-03-01T00:36:25;1.50;78.80
3298;DHT22;1661;53.572;10.174;2023-03-01T00:38:52;1.50;78.80
3298;DHT22;1661;53.572;10.174;2023-03-01T00:41:22;1.50;78.60
3298;DHT22;1661;53.572;10.174;2023-03-01T00:43:50;1.40;78.90
3298;DHT22;1661;53.572;10.174;2023-03-01T00:46:18;1.40;79.00
3298;DHT22;1661;53.572;10.174;2023-03-01T00:48:45;1.40;78.80
3298;DHT22;1661;53.572;10.174;2023-03-01T00:51:15;1.40;78.90
3298;DHT22;1661;53.572;10.174;2023-03-01T00:53:50;1.40;78.90
3298;DHT22;1661;53.572;10.174;2023-03-01T00:56:20;1.40;78.90
3298;DHT22;1661;53.572;10.174;2023-03-01T00:58:47;1.40;79.00
3298;DHT22;1661;53.572;10.174;2023-03-01T01:01:17;1.30;78.90
3298;DHT22;1661;53.572;10.174;2023-03-01T01:03:48;1.30;78.50
3298;DHT22;1661;53.572;10.174;2023-03-01T01:06:16;1.30;78.70
3298;DHT22;1661;53.572;10.174;2023-03-01T01:08:48;1.30;79.00
3298;DHT22;1661;53.572;10.174;2023-03-01T01:11:18;1.30;78.90
3298;DHT22;1661;53.572;10.174;2023-03-01T01:13:46;1.30;79.20
3298;DHT22;1661;53.572;10.174;2023-03-01T01:16:14;1.30;79.00
3298;DHT22;1661;53.572;10.174;2023-03-01T01:18:42;1.30;78.90
3298;DHT22;1661;53.572;10.174;2023-03-01T01:21:11;1.30;78.20
3298;DHT22;1661;53.572;10.174;2023-03-01T01:23:39;1.20;78.50
3298;DHT22;1661;53.572;10.174;2023-03-01T01:26:09;1.20;78.20
3298;DHT22;1661;53.572;10.174;2023-03-01T01:28:40;1.20;78.00
3298;DHT22;1661;53.572;10.174;2023-03-01T01:31:07;1.20;78.60
3298;DHT22;1661;53.572;10.174;2023-03-01T01:33:34;1.20;78.50
3298;DHT22;1661;53.572;10.174;2023-03-01T01:36:01;1.10;78.50
3298;DHT22;1661;53.572;10.174;2023-03-01T01:38:28;1.10;78.50
3298;DHT22;1661;53.572;10.174;2023-03-01T01:40:55;1.10;78.70
3298;DHT22;1661;53.572;10.174;2023-03-01T01:43:28;1.10;78.90
3298;DHT22;1661;53.572;10.174;2023-03-01T01:45:56;1.10;79.00
3298;DHT22;1661;53.572;10.174;2023-03-01T01:48:26;1.10;78.80
3298;DHT22;1661;53.572;10.174;2023-03-01T01:51:07;1.10;79.00
3298;DHT22;1661;53.572;10.174;2023-03-01T01:53:40;1.10;79.00
3298;DHT22;1661;53.572;10.174;2023-03-01T01:56:08;1.10;79.30
3298;DHT22;1661;53.572;10.174;2023-03-01T01:58:40;1.10;79.20
3298;DHT22;1661;53.572;10.174;2023-03-01T02:01:09;1.10;79.40
3298;DHT22;1661;53.572;10.174;2023-03-01T02:03:39;1.10;79.50
3298;DHT22;1661;53.572;10.174;2023-03-01T02:06:15;1.10;79.40
3298;DHT22;1661;53.572;10.174;2023-03-01T02:08:44;1.10;79.30
3298;DHT22;1661;53.572;10.174;2023-03-01T02:11:13;1.10;79.40
3298;DHT22;1661;53.572;10.174;2023-03-01T02:13:42;1.10;79.20
3298;DHT22;1661;53.572;10.174;2023-03-01T02:16:11;1.10;79.20
3298;DHT22;1661;53.572;10.174;2023-03-01T02:18:43;1.20;79.20
3298;DHT22;1661;53.572;10.174;2023-03-01T02:21:35;1.20;79.00
3298;DHT22;1661;53.572;10.174;2023-03-01T02:24:10;1.20;79.00
3298;DHT22;1661;53.572;10.174;2023-03-01T02:26:46;1.10;78.70
3298;DHT22;1661;53.572;10.174;2023-03-01T02:29:20;1.10;78.90
3298;DHT22;1661;53.572;10.174;2023-03-01T02:31:51;1.10;79.00
3298;DHT22;1661;53.572;10.174;2023-03-01T02:34:21;1.10;79.20
3298;DHT22;1661;53.572;10.174;2023-03-01T02:36:53;1.10;78.60
3298;DHT22;1661;53.572;10.174;2023-03-01T02:39:25;1.10;77.90
3298;DHT22;1661;53.572;10.174;2023-03-01T02:41:54;1.00;78.10
3298;DHT22;1661;53.572;10.174;2023-03-01T02:44:35;1.00;78.50
3298;DHT22;1661;53.572;10.174;2023-03-01T02:47:03;1.00;78.80
3298;DHT22;1661;53.572;10.174;2023-03-01T02:49:33;1.00;78.70
3298;DHT22;1661;53.572;10.174;2023-03-01T02:52:23;1.00;78.90
3298;DHT22;1661;53.572;10.174;2023-03-01T02:54:54;1.00;79.10
3298;DHT22;1661;53.572;10.174;2023-03-01T02:57:25;1.00;79.10
3298;DHT22;1661;53.572;10.174;2023-03-01T02:59:56;1.00;79.10
3298;DHT22;1661;53.572;10.174;2023-03-01T03:02:26;1.10;79.00
3298;DHT22;1661;53.572;10.174;2023-03-01T03:05:05;1.10;78.90
3298;DHT22;1661;53.572;10.174;2023-03-01T03:07:34;1.10;79.00
3298;DHT22;1661;53.572;10.174;2023-03-01T03:10:02;1.10;78.90
3298;DHT22;1661;53.572;10.174;2023-03-01T03:12:29;1.10;78.80
3298;DHT22;1661;53.572;10.174;2023-03-01T03:15:02;1.10;79.00
3298;DHT22;1661;53.572;10.174;2023-03-01T03:17:34;1.10;79.30
3298;DHT22;1661;53.572;10.174;2023-03-01T03:20:01;1.10;79.30
3298;DHT22;1661;53.572;10.174;2023-03-01T03:22:28;1.10;79.30
3298;DHT22;1661;53.572;10.174;2023-03-01T03:24:55;1.10;79.40
3298;DHT22;1661;53.572;10.174;2023-03-01T03:27:22;1.10;79.50
3298;DHT22;1661;53.572;10.174;2023-03-01T03:29:48;1.10;79.40
3298;DHT22;1661;53.572;10.174;2023-03-01T03:32:17;1.10;79.40
3298;DHT22;1661;53.572;10.174;2023-03-01T03:34:43;1.20;79.40
3298;DHT22;1661;53.572;10.174;2023-03-01T03:37:10;1.20;79.30
3298;DHT22;1661;53.572;10.174;2023-03-01T03:39:57;1.20;79.20
3298;DHT22;1661;53.572;10.174;2023-03-01T03:42:25;1.30;79.20
3298;DHT22;1661;53.572;10.174;2023-03-01T03:44:51;1.30;79.30
3298;DHT22;1661;53.572;10.174;2023-03-01T03:47:20;1.30;79.30
3298;DHT22;1661;53.572;10.174;2023-03-01T03:49:46;1.30;79.20
3298;DHT22;1661;53.572;10.174;2023-03-01T03:52:13;1.30;79.10
3298;DHT22;1661;53.572;10.174;2023-03-01T03:54:40;1.40;79.00
3298;DHT22;1661;53.572;10.174;2023-03-01T03:57:07;1.40;79.10
3298;DHT22;1661;53.572;10.174;2023-03-01T03:59:34;1.40;78.90
3298;DHT22;1661;53.572;10.174;2023-03-01T04:02:00;1.40;78.80
3298;DHT22;1661;53.572;10.174;2023-03-01T04:04:29;1.50;78.90
3298;DHT22;1661;53.572;10.174;2023-03-01T04:06:58;1.50;78.90
3298;DHT22;1661;53.572;10.174;2023-03-01T04:09:25;1.50;78.90
3298;DHT22;1661;53.572;10.174;2023-03-01T04:11:55;1.60;78.80
3298;DHT22;1661;53.572;10.174;2023-03-01T04:14:22;1.60;78.80
3298;DHT22;1661;53.572;10.174;2023-03-01T04:16:49;1.70;78.60
3298;DHT22;1661;53.572;10.174;2023-03-01T04:19:15;1.70;78.50
3298;DHT22;1661;53.572;10.174;2023-03-01T04:21:44;1.80;78.60
3298;DHT22;1661;53.572;10.174;2023-03-01T04:24:11;1.80;78.50
3298;DHT22;1661;53.572;10.174;2023-03-01T04:26:38;1.80;78.40
3298;DHT22;1661;53.572;10.174;2023-03-01T04:29:15;1.90;78.40
3298;DHT22;1661;53.572;10.174;2023-03-01T04:31:44;1.90;78.60
3298;DHT22;1661;53.572;10.174;2023-03-01T04:34:11;1.90;78.50
3298;DHT22;1661;53.572;10.174;2023-03-01T04:36:39;2.00;78.40
3298;DHT22;1661;53.572;10.174;2023-03-01T04:39:08;2.00;78.20
3298;DHT22;1661;53.572;10.174;2023-03-01T04:41:38;2.00;78.30
3298;DHT22;1661;53.572;10.174;2023-03-01T04:44:09;2.10;78.30
3298;DHT22;1661;53.572;10.174;2023-03-01T04:46:36;2.10;78.20
3298;DHT22;1661;53.572;10.174;2023-03-01T04:49:03;2.10;78.20
3298;DHT22;1661;53.572;10.174;2023-03-01T04:51:30;2.20;78.00
3298;DHT22;1661;53.572;10.174;2023-03-01T04:53:58;2.20;77.90
3298;DHT22;1661;53.572;10.174;2023-03-01T04:56:27;2.20;77.80
3298;DHT22;1661;53.572;10.174;2023-03-01T04:58:54;2.20;77.60
3298;DHT22;1661;53.572;10.174;2023-03-01T05:01:21;2.20;77.80
3298;DHT22;1661;53.572;10.174;2023-03-01T05:03:50;2.20;77.50
3298;DHT22;1661;53.572;10.174;2023-03-01T05:06:18;2.10;77.30
3298;DHT22;1661;53.572;10.174;2023-03-01T05:08:45;2.10;78.20
3298;DHT22;1661;53.572;10.174;2023-03-01T05:11:12;2.10;78.60
3298;DHT22;1661;53.572;10.174;2023-03-01T05:13:40;2.20;78.80
3298;DHT22;1661;53.572;10.174;2023-03-01T05:16:08;2.10;78.90
3298;DHT22;1661;53.572;10.174;2023-03-01T05:18:37;2.10;79.10
3298;DHT22;1661;53.572;10.174;2023-03-01T05:21:06;2.10;79.60
3298;DHT22;1661;53.572;10.174;2023-03-01T05:23:34;2.10;79.80
3298;DHT22;1661;53.572;10.174;2023-03-01T05:26:02;2.20;79.90
3298;DHT22;1661;53.572;10.174;2023-03-01T05:28:30;2.20;79.90
3298;DHT22;1661;53.572;10.174;2023-03-01T05:30:58;2.20;79.80
3298;DHT22;1661;53.572;10.174;2023-03-01T05:33:27;2.30;79.60
3298;DHT22;1661;53.572;10.174;2023-03-01T05:35:59;2.30;79.30
3298;DHT22;1661;53.572;10.174;2023-03-01T05:38:26;2.40;79.30
3298;DHT22;1661;53.572;10.174;2023-03-01T05:40:53;2.40;79.10
3298;DHT22;1661;53.572;10.174;2023-03-01T05:43:19;2.40;79.00
3298;DHT22;1661;53.572;10.174;2023-03-01T05:45:46;2.50;78.90
3298;DHT22;1661;53.572;10.174;2023-03-01T05:48:14;2.50;78.80
3298;DHT22;1661;53.572;10.174;2023-03-01T05:50:45;2.60;78.70
3298;DHT22;1661;53.572;10.174;2023-03-01T05:53:16;2.60;78.60
3298;DHT22;1661;53.572;10.174;2023-03-01T05:55:44;2.60;78.70
3298;DHT22;1661;53.572;10.174;2023-03-01T05:58:15;2.60;78.60
3298;DHT22;1661;53.572;10.174;2023-03-01T06:00:44;2.60;78.60
3298;DHT22;1661;53.572;10.174;2023-03-01T06:03:14;2.60;78.60
3298;DHT22;1661;53.572;10.174;2023-03-01T06:05:41;2.70;78.50
3298;DHT22;1661;53.572;10.174;2023-03-01T06:08:09;2.70;78.40
3298;DHT22;1661;53.572;10.174;2023-03-01T06:10:37;2.70;78.30
3298;DHT22;1661;53.572;10.174;2023-03-01T06:13:04;2.70;78.20
3298;DHT22;1661;53.572;10.174;2023-03-01T06:15:31;2.80;78.20
3298;DHT22;1661;53.572;10.174;2023-03-01T06:17:58;2.80;78.10
3298;DHT22;1661;53.572;10.174;2023-03-01T06:20:27;2.80;78.00
3298;DHT22;1661;53.572;10.174;2023-03-01T06:22:55;2.80;78.00
3298;DHT22;1661;53.572;10.174;2023-03-01T06:25:24;2.80;78.10
3298;DHT22;1661;53.572;10.174;2023-03-01T06:27:51;2.80;78.10
3298;DHT22;1661;53.572;10.174;2023-03-01T06:30:20;2.90;78.00
3298;DHT22;1661;53.572;10.174;2023-03-01T06:32:47;2.90;77.80
3298;DHT22;1661;53.572;10.174;2023-03-01T06:35:16;2.90;77.80
3298;DHT22;1661;53.572;10.174;2023-03-01T06:37:47;3.00;77.70
3298;DHT22;1661;53.572;10.174;2023-03-01T06:40:15;3.00;77.50
3298;DHT22;1661;53.572;10.174;2023-03-01T06:42:43;3.00;77.40
3298;DHT22;1661;53.572;10.174;2023-03-01T06:45:13;3.00;77.40
3298;DHT22;1661;53.572;10.174;2023-03-01T06:47:40;3.10;77.40
3298;DHT22;1661;53.572;10.174;2023-03-01T06:50:08;3.10;77.30
3298;DHT22;1661;53.572;10.174;2023-03-01T06:52:35;3.10;77.10
3298;DHT22;1661;53.572;10.174;2023-03-01T06:55:04;3.20;77.00
3298;DHT22;1661;53.572;10.174;2023-03-01T06:57:31;3.30;77.00
3298;DHT22;1661;53.572;10.174;2023-03-01T07:00:05;3.30;77.00
3298;DHT22;1661;53.572;10.174;2023-03-01T07:02:34;3.30;77.10
3298;DHT22;1661;53.572;10.174;2023-03-01T07:05:01;3.40;77.10
3298;DHT22;1661;53.572;10.174;2023-03-01T07:07:28;3.40;77.00
3298;DHT22;1661;53.572;10.174;2023-03-01T07:09:54;3.50;77.00
3298;DHT22;1661;53.572;10.174;2023-03-01T07:12:22;3.50;76.90
3298;DHT22;1661;53.572;10.174;2023-03-01T07:14:49;3.50;76.60
3298;DHT22;1661;53.572;10.174;2023-03-01T07:17:19;3.60;76.70
3298;DHT22;1661;53.572;10.174;2023-03-01T07:19:46;3.60;76.80
3298;DHT22;1661;53.572;10.174;2023-03-01T07:22:13;3.60;76.90
3298;DHT22;1661;53.572;10.174;2023-03-01T07:24:41;3.60;77.00
3298;DHT22;1661;53.572;10.174;2023-03-01T07:27:07;3.60;77.20
3298;DHT22;1661;53.572;10.174;2023-03-01T07:29:36;3.70;77.40
3298;DHT22;1661;53.572;10.174;2023-03-01T07:32:07;3.70;77.40
3298;DHT22;1661;53.572;10.174;2023-03-01T07:34:34;3.80;77.50
3298;DHT22;1661;53.572;10.174;2023-03-01T07:37:03;3.80;76.80
3298;DHT22;1661;53.572;10.174;2023-03-01T07:39:30;3.80;76.60
3298;DHT22;1661;53.572;10.174;2023-03-01T07:41:57;3.90;76.60
3298;DHT22;1661;53.572;10.174;2023-03-01T07:44:23;3.90;76.70
3298;DHT22;1661;53.572;10.174;2023-03-01T07:46:52;4.00;76.50
3298;DHT22;1661;53.572;10.174;2023-03-01T07:49:21;4.10;76.30
3298;DHT22;1661;53.572;10.174;2023-03-01T07:51:48;4.10;75.90
3298;DHT22;1661;53.572;10.174;2023-03-01T07:54:15;4.10;75.20
3298;DHT22;1661;53.572;10.174;2023-03-01T07:56:44;4.00;75.30
3298;DHT22;1661;53.572;10.174;2023-03-01T07:59:13;4.00;75.20
3298;DHT22;1661;53.572;10.174;2023-03-01T08:01:42;4.00;75.00
3298;DHT22;1661;53.572;10.174;2023-03-01T08:04:15;4.00;74.40
3298;DHT22;1661;53.572;10.174;2023-03-01T08:06:45;4.00;74.90
3298;DHT22;1661;53.572;10.174;2023-03-01T08:09:11;4.00;74.10
3298;DHT22;1661;53.572;10.174;2023-03-01T08:11:38;3.90;74.40
3298;DHT22;1661;53.572;10.174;2023-03-01T08:14:06;4.00;75.30
3298;DHT22;1661;53.572;10.174;2023-03-01T08:16:33;4.20;75.20
3298;DHT22;1661;53.572;10.174;2023-03-01T08:19:04;4.30;74.80
3298;DHT22;1661;53.572;10.174;2023-03-01T08:21:35;4.50;74.50
3298;DHT22;1661;53.572;10.174;2023-03-01T08:24:03;4.70;74.20
3298;DHT22;1661;53.572;10.174;2023-03-01T08:26:34;4.80;73.00
3298;DHT22;1661;53.572;10.174;2023-03-01T08:29:01;4.90;72.20
3298;DHT22;1661;53.572;10.174;2023-03-01T08:31:31;4.90;71.80
3298;DHT22;1661;53.572;10.174;2023-03-01T08:34:00;5.00;71.70
3298;DHT22;1661;53.572;10.174;2023-03-01T08:36:28;4.90;71.40
3298;DHT22;1661;53.572;10.174;2023-03-01T08:38:57;5.00;72.20
3298;DHT22;1661;53.572;10.174;2023-03-01T08:41:25;5.10;72.50
3298;DHT22;1661;53.572;10.174;2023-03-01T08:43:55;5.20;71.50
3298;DHT22;1661;53.572;10.174;2023-03-01T08:46:24;5.00;70.50
3298;DHT22;1661;53.572;10.174;2023-03-01T08:48:51;4.90;71.70
3298;DHT22;1661;53.572;10.174;2023-03-01T08:51:20;4.90;72.10
3298;DHT22;1661;53.572;10.174;2023-03-01T08:53:49;5.10;72.50
3298;DHT22;1661;53.572;10.174;2023-03-01T08:56:18;5.20;72.30
3298;DHT22;1661;53.572;10.174;2023-03-01T08:58:46;5.20;72.60
3298;DHT22;1661;53.572;10.174;2023-03-01T09:01:16;5.20;73.00
3298;DHT22;1661;53.572;10.174;2023-03-01T09:03:43;5.20;73.30
3298;DHT22;1661;53.572;10.174;2023-03-01T09:06:10;5.30;73.00
3298;DHT22;1661;53.572;10.174;2023-03-01T09:08:38;5.30;72.80
3298;DHT22;1661;53.572;10.174;2023-03-01T09:11:06;5.40;73.20
3298;DHT22;1661;53.572;10.174;2023-03-01T09:13:35;5.60;72.80
3298;DHT22;1661;53.572;10.174;2023-03-01T09:16:04;5.60;72.30
3298;DHT22;1661;53.572;10.174;2023-03-01T09:18:33;5.60;71.80
3298;DHT22;1661;53.572;10.174;2023-03-01T09:21:02;5.60;72.20
3298;DHT22;1661;53.572;10.174;2023-03-01T09:23:33;5.80;72.40
3298;DHT22;1661;53.572;10.174;2023-03-01T09:26:05;5.90;72.30
3298;DHT22;1661;53.572;10.174;2023-03-01T09:28:36;5.80;71.20
3298;DHT22;1661;53.572;10.174;2023-03-01T09:31:04;5.90;71.80
3298;DHT22;1661;53.572;10.174;2023-03-01T09:33:32;6.10;71.80
3298;DHT22;1661;53.572;10.174;2023-03-01T09:35:59;6.30;71.90
3298;DHT22;1661;53.572;10.174;2023-03-01T09:38:26;6.60;72.10
3298;DHT22;1661;53.572;10.174;2023-03-01T09:40:53;6.80;71.70
3298;DHT22;1661;53.572;10.174;2023-03-01T09:43:25;6.90;69.90
3298;DHT22;1661;53.572;10.174;2023-03-01T09:45:59;6.90;70.60
3298;DHT22;1661;53.572;10.174;2023-03-01T09:48:31;6.80;70.10
3298;DHT22;1661;53.572;10.174;2023-03-01T09:51:06;6.70;71.00
3298;DHT22;1661;53.572;10.174;2023-03-01T09:53:35;6.80;70.60
3298;DHT22;1661;53.572;10.174;2023-03-01T09:56:04;6.90;71.70
3298;DHT22;1661;53.572;10.174;2023-03-01T09:58:37;7.00;70.80
3298;DHT22;1661;53.572;10.174;2023-03-01T10:01:23;7.00;70.70
3298;DHT22;1661;53.572;10.174;2023-03-01T10:04:05;7.00;70.60
3298;DHT22;1661;53.572;10.174;2023-03-01T10:06:36;7.20;70.40
3298;DHT22;1661;53.572;10.174;2023-03-01T10:09:07;7.40;70.50
3298;DHT22;1661;53.572;10.174;2023-03-01T10:11:38;7.60;69.10
3298;DHT22;1661;53.572;10.174;2023-03-01T10:14:17;7.40;69.00
3298;DHT22;1661;53.572;10.174;2023-03-01T10:16:50;7.60;68.90
3298;DHT22;1661;53.572;10.174;2023-03-01T10:19:24;7.90;69.30
3298;DHT22;1661;53.572;10.174;2023-03-01T10:21:51;7.90;68.40
3298;DHT22;1661;53.572;10.174;2023-03-01T10:24:19;8.00;68.20
3298;DHT22;1661;53.572;10.174;2023-03-01T10:26:54;8.10;67.90
3298;DHT22;1661;53.572;10.174;2023-03-01T10:29:25;8.30;68.20
3298;DHT22;1661;53.572;10.174;2023-03-01T10:31:55;8.60;66.90
3298;DHT22;1661;53.572;10.174;2023-03-01T10:34:28;8.70;65.90
3298;DHT22;1661;53.572;10.174;2023-03-01T10:36:57;8.90;66.60
3298;DHT22;1661;53.572;10.174;2023-03-01T10:39:26;8.90;65.40
3298;DHT22;1661;53.572;10.174;2023-03-01T10:41:58;8.90;64.90
3298;DHT22;1661;53.572;10.174;2023-03-01T10:44:44;8.60;66.50
3298;DHT22;1661;53.572;10.174;2023-03-01T10:47:17;8.80;66.10
3298;DHT22;1661;53.572;10.174;2023-03-01T10:49:54;9.00;66.60
3298;DHT22;1661;53.572;10.174;2023-03-01T10:52:24;9.10;66.00
3298;DHT22;1661;53.572;10.174;2023-03-01T10:54:54;9.30;66.30
3298;DHT22;1661;53.572;10.174;2023-03-01T10:57:35;9.30;65.40
3298;DHT22;1661;53.572;10.174;2023-03-01T11:00:30;9.40;66.00
3298;DHT22;1661;53.572;10.174;2023-03-01T11:03:13;9.30;65.10
3298;DHT22;1661;53.572;10.174;2023-03-01T11:05:56;9.10;66.30
3298;DHT22;1661;53.572;10.174;2023-03-01T11:08:34;9.30;67.10
3298;DHT22;1661;53.572;10.174;2023-03-01T11:11:07;9.30;66.50
3298;DHT22;1661;53.572;10.174;2023-03-01T11:13:37;9.40;64.70
3298;DHT22;1661;53.572;10.174;2023-03-01T11:16:07;9.50;65.50
3298;DHT22;1661;53.572;10.174;2023-03-01T11:18:37;9.70;66.60
3298;DHT22;1661;53.572;10.174;2023-03-01T11:21:06;9.90;64.30
3298;DHT22;1661;53.572;10.174;2023-03-01T11:23:34;10.10;63.80
3298;DHT22;1661;53.572;10.174;2023-03-01T11:26:08;10.00;63.80
3298;DHT22;1661;53.572;10.174;2023-03-01T11:28:37;10.10;65.30
3298;DHT22;1661;53.572;10.174;2023-03-01T11:31:08;10.60;63.80
3298;DHT22;1661;53.572;10.174;2023-03-01T11:33:42;11.00;64.80
3298;DHT22;1661;53.572;10.174;2023-03-01T11:36:18;11.40;62.50
3298;DHT22;1661;53.572;10.174;2023-03-01T11:38:46;11.30;59.80
3298;DHT22;1661;53.572;10.174;2023-03-01T11:41:16;11.10;61.30
3298;DHT22;1661;53.572;10.174;2023-03-01T11:43:49;11.20;60.50
3298;DHT22;1661;53.572;10.174;2023-03-01T11:46:48;11.40;61.40
3298;DHT22;1661;53.572;10.174;2023-03-01T11:52:32;11.90;58.40
3298;DHT22;1661;53.572;10.174;2023-03-01T11:55:25;12.30;58.90
3298;DHT22;1661;53.572;10.174;2023-03-01T12:01:07;13.10;57.30
3298;DHT22;1661;53.572;10.174;2023-03-01T12:06:37;13.40;55.40
3298;DHT22;1661;53.572;10.174;2023-03-01T12:09:24;13.50;55.30
3298;DHT22;1661;53.572;10.174;2023-03-01T12:12:27;13.30;56.30
3298;DHT22;1661;53.572;10.174;2023-03-01T12:15:15;13.30;55.40
3298;DHT22;1661;53.572;10.174;2023-03-01T12:21:01;13.10;56.00
3298;DHT22;1661;53.572;10.174;2023-03-01T12:23:52;13.30;57.00
3298;DHT22;1661;53.572;10.174;2023-03-01T12:26:28;13.70;55.20
3298;DHT22;1661;53.572;10.174;2023-03-01T12:29:07;13.90;55.20
3298;DHT22;1661;53.572;10.174;2023-03-01T12:31:52;14.10;55.40
3298;DHT22;1661;53.572;10.174;2023-03-01T12:34:45;13.60;54.70
3298;DHT22;1661;53.572;10.174;2023-03-01T12:37:31;13.10;55.90
3298;DHT22;1661;53.572;10.174;2023-03-01T12:40:15;12.70;57.00
3298;DHT22;1661;53.572;10.174;2023-03-01T12:42:52;12.90;56.60
3298;DHT22;1661;53.572;10.174;2023-03-01T12:45:38;13.20;57.10
3298;DHT22;1661;53.572;10.174;2023-03-01T12:48:28;13.60;56.40
3298;DHT22;1661;53.572;10.174;2023-03-01T12:51:01;13.90;56.50
3298;DHT22;1661;53.572;10.174;2023-03-01T12:53:31;14.00;57.10
3298;DHT22;1661;53.572;10.174;2023-03-01T12:56:04;13.50;55.00
3298;DHT22;1661;53.572;10.174;2023-03-01T12:58:40;13.10;56.40
3298;DHT22;1661;53.572;10.174;2023-03-01T13:01:21;13.30;57.60
3298;DHT22;1661;53.572;10.174;2023-03-01T13:04:13;12.90;57.70
3298;DHT22;1661;53.572;10.174;2023-03-01T13:06:54;13.00;57.50
3298;DHT22;1661;53.572;10.174;2023-03-01T13:09:31;13.40;56.30
3298;DHT22;1661;53.572;10.174;2023-03-01T13:12:02;13.80;55.40
3298;DHT22;1661;53.572;10.174;2023-03-01T13:14:46;14.10;54.90
3298;DHT22;1661;53.572;10.174;2023-03-01T13:17:33;14.50;53.10
3298;DHT22;1661;53.572;10.174;2023-03-01T13:20:13;14.50;54.30
3298;DHT22;1661;53.572;10.174;2023-03-01T13:22:41;14.70;53.30
3298;DHT22;1661;53.572;10.174;2023-03-01T13:25:16;14.70;52.80
3298;DHT22;1661;53.572;10.174;2023-03-01T13:27:44;14.70;52.30
3298;DHT22;1661;53.572;10.174;2023-03-01T13:30:42;14.80;52.60
3298;DHT22;1661;53.572;10.174;2023-03-01T13:33:40;14.80;50.30
3298;DHT22;1661;53.572;10.174;2023-03-01T13:36:10;14.60;49.20
3298;DHT22;1661;53.572;10.174;2023-03-01T13:38:54;14.60;56.50
3298;DHT22;1661;53.572;10.174;2023-03-01T13:41:50;14.80;52.10
3298;DHT22;1661;53.572;10.174;2023-03-01T13:44:24;15.10;51.20
3298;DHT22;1661;53.572;10.174;2023-03-01T13:46:58;14.60;51.80
3298;DHT22;1661;53.572;10.174;2023-03-01T13:49:27;14.50;51.20
3298;DHT22;1661;53.572;10.174;2023-03-01T13:51:57;14.20;60.30
3298;DHT22;1661;53.572;10.174;2023-03-01T13:54:28;14.10;54.40
3298;DHT22;1661;53.572;10.174;2023-03-01T13:56:56;14.20;50.60
3298;DHT22;1661;53.572;10.174;2023-03-01T13:59:24;14.30;57.30
3298;DHT22;1661;53.572;10.174;2023-03-01T14:02:00;14.50;53.50
3298;DHT22;1661;53.572;10.174;2023-03-01T14:04:28;14.80;51.50
3298;DHT22;1661;53.572;10.174;2023-03-01T14:07:11;15.10;48.90
3298;DHT22;1661;53.572;10.174;2023-03-01T14:09:39;15.20;50.30
3298;DHT22;1661;53.572;10.174;2023-03-01T14:12:18;15.20;46.50
3298;DHT22;1661;53.572;10.174;2023-03-01T14:14:54;15.10;50.50
3298;DHT22;1661;53.572;10.174;2023-03-01T14:17:43;15.20;47.30
3298;DHT22;1661;53.572;10.174;2023-03-01T14:20:17;15.30;48.80
3298;DHT22;1661;53.572;10.174;2023-03-01T14:22:45;15.50;47.70
3298;DHT22;1661;53.572;10.174;2023-03-01T14:25:21;15.60;46.50
3298;DHT22;1661;53.572;10.174;2023-03-01T14:27:54;15.50;48.80
3298;DHT22;1661;53.572;10.174;2023-03-01T14:30:24;15.60;46.40
3298;DHT22;1661;53.572;10.174;2023-03-01T14:32:54;15.60;46.80
3298;DHT22;1661;53.572;10.174;2023-03-01T14:35:24;15.60;45.50
3298;DHT22;1661;53.572;10.174;2023-03-01T14:37:51;15.70;47.30
3298;DHT22;1661;53.572;10.174;2023-03-01T14:40:26;15.70;48.90
3298;DHT22;1661;53.572;10.174;2023-03-01T14:42:55;15.70;48.20
3298;DHT22;1661;53.572;10.174;2023-03-01T14:45:24;15.70;49.00
3298;DHT22;1661;53.572;10.174;2023-03-01T14:47:53;15.70;47.80
3298;DHT22;1661;53.572;10.174;2023-03-01T14:50:26;15.70;47.60
3298;DHT22;1661;53.572;10.174;2023-03-01T14:52:55;15.70;45.80
3298;DHT22;1661;53.572;10.174;2023-03-01T14:55:27;15.70;47.00
3298;DHT22;1661;53.572;10.174;2023-03-01T14:57:57;15.70;47.00
3298;DHT22;1661;53.572;10.174;2023-03-01T15:00:29;15.70;48.40
3298;DHT22;1661;53.572;10.174;2023-03-01T15:03:02;15.60;46.60
3298;DHT22;1661;53.572;10.174;2023-03-01T15:05:30;15.50;49.20
3298;DHT22;1661;53.572;10.174;2023-03-01T15:07:58;15.40;47.00
3298;DHT22;1661;53.572;10.174;2023-03-01T15:10:27;15.20;51.80
3298;DHT22;1661;53.572;10.174;2023-03-01T15:12:55;14.80;48.20
3298;DHT22;1661;53.572;10.174;2023-03-01T15:15:34;14.50;48.90
3298;DHT22;1661;53.572;10.174;2023-03-01T15:18:05;14.20;54.50
3298;DHT22;1661;53.572;10.174;2023-03-01T15:20:34;14.20;54.10
3298;DHT22;1661;53.572;10.174;2023-03-01T15:23:03;14.30;53.10
3298;DHT22;1661;53.572;10.174;2023-03-01T15:25:31;14.40;53.50
3298;DHT22;1661;53.572;10.174;2023-03-01T15:28:00;14.50;53.00
3298;DHT22;1661;53.572;10.174;2023-03-01T15:30:30;14.50;55.20
3298;DHT22;1661;53.572;10.174;2023-03-01T15:33:37;14.50;54.10
3298;DHT22;1661;53.572;10.174;2023-03-01T15:36:29;14.50;56.70
3298;DHT22;1661;53.572;10.174;2023-03-01T15:38:58;14.50;56.10
3298;DHT22;1661;53.572;10.174;2023-03-01T15:41:27;14.60;60.30
3298;DHT22;1661;53.572;10.174;2023-03-01T15:43:56;14.60;58.80
3298;DHT22;1661;53.572;10.174;2023-03-01T15:46:26;14.60;56.30
3298;DHT22;1661;53.572;10.174;2023-03-01T15:48:58;14.50;58.60
3298;DHT22;1661;53.572;10.174;2023-03-01T15:51:31;14.50;56.50
3298;DHT22;1661;53.572;10.174;2023-03-01T15:54:00;14.50;58.40
3298;DHT22;1661;53.572;10.174;2023-03-01T15:56:28;14.40;57.20
3298;DHT22;1661;53.572;10.174;2023-03-01T15:58:58;14.40;60.80
3298;DHT22;1661;53.572;10.174;2023-03-01T16:01:25;14.30;58.30
3298;DHT22;1661;53.572;10.174;2023-03-01T16:03:52;14.20;60.80
3298;DHT22;1661;53.572;10.174;2023-03-01T16:06:25;14.10;60.50
3298;DHT22;1661;53.572;10.174;2023-03-01T16:08:54;13.90;57.20
3298;DHT22;1661;53.572;10.174;2023-03-01T16:11:24;13.70;58.50
3298;DHT22;1661;53.572;10.174;2023-03-01T16:13:51;13.60;64.60
3298;DHT22;1661;53.572;10.174;2023-03-01T16:16:17;13.40;59.90
3298;DHT22;1661;53.572;10.174;2023-03-01T16:18:45;13.20;62.60
3298;DHT22;1661;53.572;10.174;2023-03-01T16:21:14;13.10;65.80
3298;DHT22;1661;53.572;10.174;2023-03-01T16:23:43;12.90;66.40
3298;DHT22;1661;53.572;10.174;2023-03-01T16:26:11;12.70;66.10
3298;DHT22;1661;53.572;10.174;2023-03-01T16:28:43;12.60;61.30
3298;DHT22;1661;53.572;10.174;2023-03-01T16:31:10;12.40;65.60
3298;DHT22;1661;53.572;10.174;2023-03-01T16:33:37;12.30;69.00
3298;DHT22;1661;53.572;10.174;2023-03-01T16:36:08;12.20;67.10